EGCN/DSA METAR and TAF weather

Enter ICAO airport designator
Station Type Date Time Source
EGCN METAR 2020/11/25 23:20 UTC NOAA

EGCN 252320Z 22003KT CAVOK 03/02 Q1019


Station Type Date Time Source
EGCN Decoded METAR 2020/11/25 23:20 UTC NOAA

Station name not available
Nov 25, 2020 - 06:20 PM EST / 2020.11.25 2320 UTC
Wind: from the SW (220 degrees) at 3 MPH (3 KT):0
Visibility: greater than 7 mile(s):0
Temperature: 37 F (3 C)
Dew Point: 35 F (2 C)
Relative Humidity: 93%
Pressure (altimeter): 30.09 in. Hg (1019 hPa)
ob: EGCN 252320Z 22003KT CAVOK 03/02 Q1019
cycle: 23

Station Type Date Time Source
EGCN TAF 2020/11/25 18:00 UTC NOAA

TAF EGCN 251700Z 2518/2618 27005KT 9999 FEW025
TEMPO 2520/2618 7000 PROB30
TEMPO 2521/2602 3000 BR PROB30 2602/2608 0300 FG VV/// PROB30
TEMPO 2608/2609 3000 BR

Example: see airport list